createdAt,value
2017-05-17T00:00:28.671Z,0
2017-05-17T00:01:09.086Z,0
2017-05-17T00:01:49.484Z,0
2017-05-17T00:02:29.930Z,0
2017-05-17T00:03:10.326Z,0
2017-05-17T00:03:50.750Z,0
2017-05-17T00:04:31.193Z,0
2017-05-17T00:05:11.614Z,0
2017-05-17T00:05:52.001Z,0
2017-05-17T00:06:32.537Z,0
2017-05-17T00:07:12.981Z,0
2017-05-17T00:07:53.373Z,0
2017-05-17T00:08:33.783Z,0
2017-05-17T00:09:14.219Z,0
2017-05-17T00:09:54.629Z,0
2017-05-17T00:10:35.064Z,0
2017-05-17T00:11:15.478Z,0
2017-05-17T00:11:55.839Z,0
2017-05-17T00:12:36.388Z,0
2017-05-17T00:13:17.693Z,0
2017-05-17T00:13:58.100Z,0
2017-05-17T00:14:39.352Z,0
2017-05-17T00:15:21.638Z,0
2017-05-17T00:16:02.020Z,0
2017-05-17T00:16:42.386Z,0
2017-05-17T00:17:22.880Z,0
2017-05-17T00:18:03.253Z,0
2017-05-17T00:18:44.973Z,0
2017-05-17T00:19:25.867Z,0
2017-05-17T00:20:08.894Z,0
2017-05-17T00:20:49.297Z,0
2017-05-17T00:21:30.545Z,0
2017-05-17T00:22:10.994Z,0
2017-05-17T00:22:51.418Z,0
2017-05-17T00:23:33.368Z,0
2017-05-17T00:24:13.747Z,0
2017-05-17T00:24:54.231Z,0
2017-05-17T00:25:34.666Z,0
2017-05-17T00:26:15.652Z,0
2017-05-17T00:26:57.378Z,0
2017-05-17T00:27:37.811Z,0
2017-05-17T00:28:18.210Z,0
2017-05-17T00:28:58.577Z,0
2017-05-17T00:29:39.094Z,0
2017-05-17T00:30:19.512Z,0
2017-05-17T00:30:59.916Z,0
2017-05-17T00:31:40.380Z,0
2017-05-17T00:32:21.524Z,0
2017-05-17T00:33:01.892Z,0
2017-05-17T00:33:43.019Z,0
2017-05-17T00:34:25.880Z,0
2017-05-17T00:35:07.265Z,0
2017-05-17T00:35:51.580Z,0
2017-05-17T00:36:31.949Z,0
2017-05-17T00:37:12.411Z,0
2017-05-17T00:37:52.800Z,0
2017-05-17T00:38:33.174Z,0
2017-05-17T00:39:13.612Z,0
2017-05-17T00:39:54.032Z,0
2017-05-17T00:40:35.220Z,0
2017-05-17T00:41:15.692Z,0
2017-05-17T00:41:56.079Z,0
2017-05-17T00:42:37.437Z,0
2017-05-17T00:43:17.868Z,0
2017-05-17T00:43:58.300Z,0
2017-05-17T00:44:38.741Z,0
2017-05-17T00:45:19.125Z,0
2017-05-17T00:45:59.531Z,0
2017-05-17T00:46:39.980Z,0
2017-05-17T00:47:20.405Z,0
2017-05-17T00:48:00.809Z,0
2017-05-17T00:48:41.239Z,0
2017-05-17T00:49:21.646Z,0
2017-05-17T00:50:02.141Z,0
2017-05-17T00:50:42.528Z,0
2017-05-17T00:51:22.982Z,0
2017-05-17T00:52:03.378Z,0
2017-05-17T00:52:43.776Z,0
2017-05-17T00:53:24.191Z,0
2017-05-17T00:54:04.659Z,0
2017-05-17T00:54:45.076Z,0
2017-05-17T00:55:25.461Z,0
2017-05-17T00:56:05.973Z,0
2017-05-17T00:56:46.306Z,0
2017-05-17T00:57:26.710Z,0
2017-05-17T00:58:07.154Z,0
2017-05-17T00:58:47.633Z,0
2017-05-17T00:59:28.130Z,0
2017-05-17T01:00:08.515Z,0
2017-05-17T01:00:48.903Z,0
2017-05-17T01:01:29.344Z,0
2017-05-17T01:02:09.745Z,0
2017-05-17T01:02:50.221Z,0
2017-05-17T01:03:30.662Z,0
2017-05-17T01:04:11.041Z,0
2017-05-17T01:04:51.465Z,0
2017-05-17T01:05:31.890Z,0
2017-05-17T01:06:12.325Z,0
2017-05-17T01:06:52.730Z,0
2017-05-17T01:07:33.213Z,0
2017-05-17T01:08:13.674Z,0
2017-05-17T01:08:54.098Z,0
2017-05-17T01:09:34.478Z,0
2017-05-17T01:10:14.941Z,0
2017-05-17T01:10:55.368Z,0
2017-05-17T01:11:35.772Z,0
2017-05-17T01:12:16.170Z,0
2017-05-17T01:12:56.593Z,0
2017-05-17T01:13:37.017Z,0
2017-05-17T01:14:17.396Z,0
2017-05-17T01:14:57.874Z,0
2017-05-17T01:15:38.257Z,0
2017-05-17T01:16:18.702Z,0
2017-05-17T01:16:59.198Z,0
2017-05-17T01:17:39.627Z,0
2017-05-17T01:18:20.081Z,0
2017-05-17T01:19:00.480Z,0
2017-05-17T01:19:40.858Z,0
2017-05-17T01:20:21.357Z,0
2017-05-17T01:21:01.714Z,0
2017-05-17T01:21:42.098Z,0
2017-05-17T01:22:22.507Z,0
2017-05-17T01:23:02.951Z,0
2017-05-17T01:23:43.321Z,0
2017-05-17T01:24:23.725Z,0
2017-05-17T01:25:04.201Z,0
2017-05-17T01:25:44.587Z,0
2017-05-17T01:26:24.981Z,0
2017-05-17T01:27:05.403Z,0
2017-05-17T01:27:45.800Z,0
2017-05-17T01:28:26.224Z,0
2017-05-17T01:29:06.649Z,0
2017-05-17T01:29:47.083Z,0
2017-05-17T01:30:27.519Z,0
2017-05-17T01:31:07.916Z,0
2017-05-17T01:31:48.352Z,0
2017-05-17T01:32:28.757Z,0
2017-05-17T01:33:09.116Z,0
2017-05-17T01:33:49.544Z,0
2017-05-17T01:34:29.922Z,0
2017-05-17T01:35:10.355Z,0
2017-05-17T01:35:50.786Z,0
2017-05-17T01:36:31.170Z,0
2017-05-17T01:37:11.629Z,0
2017-05-17T01:37:52.026Z,0
2017-05-17T01:38:32.399Z,0
2017-05-17T01:39:12.817Z,0
2017-05-17T01:39:53.244Z,0
2017-05-17T01:40:33.657Z,0
2017-05-17T01:41:14.055Z,0
2017-05-17T01:41:54.441Z,0
2017-05-17T01:42:34.825Z,0
2017-05-17T01:43:15.234Z,0
2017-05-17T01:43:55.671Z,0
2017-05-17T01:44:36.093Z,0
2017-05-17T01:45:16.551Z,0
2017-05-17T01:45:57.008Z,0
2017-05-17T01:46:37.374Z,0
2017-05-17T01:47:17.797Z,0
2017-05-17T01:47:58.230Z,0
2017-05-17T01:48:38.640Z,0
2017-05-17T01:49:19.084Z,0
2017-05-17T01:49:59.515Z,0
2017-05-17T01:50:39.934Z,0
2017-05-17T01:51:20.305Z,0
2017-05-17T01:52:00.678Z,0
2017-05-17T01:52:41.141Z,0
2017-05-17T01:53:21.545Z,0
2017-05-17T01:54:01.936Z,0
2017-05-17T01:54:42.394Z,0
2017-05-17T01:55:22.845Z,0
2017-05-17T01:56:03.208Z,0
2017-05-17T01:56:43.627Z,0
2017-05-17T01:57:24.123Z,0
2017-05-17T01:58:04.519Z,0
2017-05-17T01:58:44.908Z,0
2017-05-17T01:59:25.308Z,0
2017-05-17T02:00:05.766Z,0
2017-05-17T02:00:46.163Z,0
2017-05-17T02:01:26.540Z,0
2017-05-17T02:02:06.964Z,0
2017-05-17T02:02:47.401Z,0
2017-05-17T02:03:27.837Z,0
2017-05-17T02:04:08.214Z,0
2017-05-17T02:04:48.629Z,0
2017-05-17T02:05:29.010Z,0
2017-05-17T02:06:09.473Z,0
2017-05-17T02:06:49.837Z,0
2017-05-17T02:07:30.243Z,0
2017-05-17T02:08:10.733Z,0
2017-05-17T02:08:51.121Z,0
2017-05-17T02:09:31.487Z,0
2017-05-17T02:10:11.952Z,0
2017-05-17T02:10:52.331Z,0
2017-05-17T02:11:32.715Z,0
2017-05-17T02:12:13.119Z,0
2017-05-17T02:12:53.570Z,0
2017-05-17T02:13:33.983Z,0
2017-05-17T02:14:14.351Z,0
2017-05-17T02:14:54.784Z,0
2017-05-17T02:15:35.241Z,0
2017-05-17T02:16:15.658Z,0
2017-05-17T02:16:56.133Z,0
2017-05-17T02:17:36.576Z,0
2017-05-17T02:18:17.012Z,0
2017-05-17T02:18:57.363Z,0
2017-05-17T02:19:37.796Z,0
2017-05-17T02:20:18.241Z,0
2017-05-17T02:20:58.647Z,0
2017-05-17T02:21:39.141Z,0
2017-05-17T02:22:19.546Z,0
2017-05-17T02:22:59.999Z,0
2017-05-17T02:23:40.380Z,0
2017-05-17T02:24:20.787Z,0
2017-05-17T02:25:01.236Z,0
2017-05-17T02:25:43.182Z,0
2017-05-17T02:26:23.570Z,0
2017-05-17T02:27:04.012Z,0
2017-05-17T02:27:44.414Z,0
2017-05-17T02:28:24.856Z,0
2017-05-17T02:29:05.388Z,0
2017-05-17T02:29:45.800Z,0
2017-05-17T02:30:26.219Z,0
2017-05-17T02:31:06.716Z,0
2017-05-17T02:31:47.084Z,0
2017-05-17T02:32:27.566Z,0
2017-05-17T02:33:07.950Z,0
2017-05-17T02:33:48.383Z,0
2017-05-17T02:34:28.802Z,0
2017-05-17T02:35:09.244Z,0
2017-05-17T02:35:49.670Z,0
2017-05-17T02:36:30.072Z,0
2017-05-17T02:37:10.477Z,0
2017-05-17T02:37:50.920Z,0
2017-05-17T02:38:31.288Z,0
2017-05-17T02:39:11.707Z,0
2017-05-17T02:39:52.161Z,0
2017-05-17T02:40:32.590Z,0
2017-05-17T02:41:12.974Z,0
2017-05-17T02:41:53.410Z,0
2017-05-17T02:42:33.833Z,0
2017-05-17T02:43:14.231Z,0
2017-05-17T02:43:54.647Z,0
2017-05-17T02:44:35.059Z,0
2017-05-17T02:45:16.144Z,0
2017-05-17T02:45:56.617Z,0
2017-05-17T02:46:37.016Z,0
2017-05-17T02:47:17.421Z,0
2017-05-17T02:47:57.843Z,0
2017-05-17T02:48:38.265Z,0
2017-05-17T02:49:18.654Z,0
2017-05-17T02:49:59.101Z,0
2017-05-17T02:50:39.466Z,0
2017-05-17T02:51:19.873Z,0
2017-05-17T02:52:00.245Z,0
2017-05-17T02:52:40.688Z,0
2017-05-17T02:53:21.143Z,0
2017-05-17T02:54:01.590Z,0
2017-05-17T02:54:41.994Z,0
2017-05-17T02:55:22.373Z,0
2017-05-17T02:56:02.790Z,0
2017-05-17T02:56:43.188Z,0
2017-05-17T02:57:23.614Z,0
2017-05-17T02:58:03.971Z,0
2017-05-17T02:58:44.400Z,0
2017-05-17T02:59:24.810Z,0
2017-05-17T03:00:05.255Z,0
2017-05-17T03:00:45.637Z,0
2017-05-17T03:01:26.069Z,0
2017-05-17T03:02:06.495Z,0
2017-05-17T03:02:46.903Z,4
2017-05-17T03:03:27.315Z,4
2017-05-17T03:04:07.709Z,4
2017-05-17T03:04:48.163Z,4
2017-05-17T03:05:28.581Z,4
2017-05-17T03:06:08.987Z,4
2017-05-17T03:06:49.414Z,4
2017-05-17T03:07:29.820Z,4
2017-05-17T03:08:10.251Z,4
2017-05-17T03:08:50.678Z,4
2017-05-17T03:09:31.061Z,8
2017-05-17T03:10:11.574Z,8
2017-05-17T03:10:51.976Z,4
2017-05-17T03:11:32.430Z,8
2017-05-17T03:12:12.920Z,8
2017-05-17T03:12:53.268Z,12
2017-05-17T03:13:33.726Z,8
2017-05-17T03:14:14.102Z,12
2017-05-17T03:14:54.517Z,12
2017-05-17T03:15:34.908Z,12
2017-05-17T03:16:15.334Z,12
2017-05-17T03:16:55.746Z,16
2017-05-17T03:17:36.185Z,16
2017-05-17T03:18:16.583Z,20
2017-05-17T03:18:57.025Z,24
2017-05-17T03:19:37.444Z,24
2017-05-17T03:20:17.880Z,28
2017-05-17T03:20:58.342Z,32
2017-05-17T03:21:38.749Z,32
2017-05-17T03:22:19.170Z,32
2017-05-17T03:22:59.584Z,40
2017-05-17T03:23:39.991Z,44
2017-05-17T03:24:20.388Z,44
2017-05-17T03:25:02.761Z,52
2017-05-17T03:25:44.668Z,56
2017-05-17T03:26:25.113Z,60
2017-05-17T03:27:05.522Z,64
2017-05-17T03:27:46.008Z,72
2017-05-17T03:28:26.412Z,80
2017-05-17T03:29:06.825Z,84
2017-05-17T03:29:47.978Z,88
2017-05-17T03:30:28.422Z,100
2017-05-17T03:31:08.826Z,104
2017-05-17T03:31:49.260Z,112
2017-05-17T03:32:29.697Z,124
2017-05-17T03:33:10.116Z,128
2017-05-17T03:33:50.512Z,140
2017-05-17T03:34:31.558Z,148
2017-05-17T03:35:11.996Z,156
2017-05-17T03:35:52.362Z,168
2017-05-17T03:36:32.791Z,180
2017-05-17T03:37:13.179Z,188
2017-05-17T03:37:53.698Z,200
2017-05-17T03:38:34.135Z,212
2017-05-17T03:39:14.508Z,224
2017-05-17T03:39:54.921Z,236
2017-05-17T03:40:35.353Z,248
2017-05-17T03:41:15.753Z,260
2017-05-17T03:41:56.171Z,276
2017-05-17T03:42:36.575Z,288
2017-05-17T03:43:16.970Z,300
2017-05-17T03:43:57.393Z,316
2017-05-17T03:44:37.790Z,332
2017-05-17T03:45:18.284Z,348
2017-05-17T03:45:58.658Z,360
2017-05-17T03:46:39.084Z,376
2017-05-17T03:47:19.559Z,396
2017-05-17T03:48:00.003Z,412
2017-05-17T03:48:40.429Z,428
2017-05-17T03:49:20.903Z,444
2017-05-17T03:50:02.200Z,464
2017-05-17T03:50:42.659Z,484
2017-05-17T03:51:23.036Z,500
2017-05-17T03:52:03.486Z,520
2017-05-17T03:52:44.567Z,536
2017-05-17T03:53:27.636Z,552
2017-05-17T03:54:08.004Z,576
2017-05-17T03:54:48.434Z,592
2017-05-17T03:55:28.881Z,612
2017-05-17T03:56:10.099Z,632
2017-05-17T03:56:52.450Z,652
2017-05-17T03:57:32.844Z,668
2017-05-17T03:58:13.199Z,688
2017-05-17T03:58:53.696Z,704
2017-05-17T03:59:34.146Z,724
2017-05-17T04:00:14.526Z,740
2017-05-17T04:00:55.911Z,760
2017-05-17T04:01:36.404Z,776
2017-05-17T04:02:16.805Z,796
2017-05-17T04:02:57.268Z,816
2017-05-17T04:03:38.469Z,836
2017-05-17T04:04:18.912Z,856
2017-05-17T04:05:01.196Z,872
2017-05-17T04:05:41.660Z,892
2017-05-17T04:06:23.531Z,912
2017-05-17T04:07:05.680Z,932
2017-05-17T04:07:46.087Z,956
2017-05-17T04:08:26.520Z,972
2017-05-17T04:09:07.688Z,992
2017-05-17T04:09:48.086Z,1012
2017-05-17T04:10:28.589Z,1032
2017-05-17T04:11:09.537Z,1048
2017-05-17T04:11:49.944Z,1068
2017-05-17T04:12:31.109Z,1088
2017-05-17T04:13:11.488Z,1112
2017-05-17T04:13:51.884Z,1132
2017-05-17T04:14:32.264Z,1152
2017-05-17T04:15:12.648Z,1176
2017-05-17T04:15:53.082Z,1192
2017-05-17T04:16:35.770Z,1212
2017-05-17T04:17:16.224Z,1232
2017-05-17T04:17:56.595Z,1248
2017-05-17T04:18:37.028Z,1264
2017-05-17T04:19:17.391Z,1280
2017-05-17T04:19:57.816Z,1300
2017-05-17T04:20:38.235Z,1316
2017-05-17T04:21:18.692Z,1328
2017-05-17T04:21:59.063Z,1348
2017-05-17T04:22:39.508Z,1364
2017-05-17T04:23:19.977Z,1380
2017-05-17T04:24:00.364Z,1404
2017-05-17T04:24:40.749Z,1420
2017-05-17T04:25:21.742Z,1440
2017-05-17T04:26:02.181Z,1468
2017-05-17T04:26:44.040Z,1488
2017-05-17T04:27:24.410Z,1516
2017-05-17T04:28:05.438Z,1548
2017-05-17T04:28:47.754Z,1588
2017-05-17T04:31:02.725Z,1740
2017-05-17T04:31:46.448Z,1792
2017-05-17T04:32:27.791Z,1848
2017-05-17T04:34:45.621Z,2008
2017-05-17T04:35:25.787Z,2052
2017-05-17T04:39:28.433Z,2268
2017-05-17T04:40:08.773Z,2300
2017-05-17T04:40:49.140Z,2328
2017-05-17T04:41:29.621Z,2364
2017-05-17T04:42:10.273Z,2396
2017-05-17T04:42:51.473Z,2428
2017-05-17T04:43:31.913Z,2456
2017-05-17T04:44:12.270Z,2488
2017-05-17T04:44:52.728Z,2516
2017-05-17T04:45:33.084Z,2544
2017-05-17T04:46:13.578Z,2568
2017-05-17T04:46:54.030Z,2592
2017-05-17T04:47:34.416Z,2616
2017-05-17T04:48:14.806Z,2632
2017-05-17T04:48:55.169Z,2656
2017-05-17T04:49:35.653Z,2672
2017-05-17T04:50:15.976Z,2700
2017-05-17T04:50:56.487Z,2728
2017-05-17T04:51:36.844Z,2748
2017-05-17T04:52:18.006Z,2772
2017-05-17T04:52:58.394Z,2804
2017-05-17T04:53:38.954Z,2832
2017-05-17T04:54:19.379Z,2864
2017-05-17T04:54:59.747Z,2896
2017-05-17T04:55:40.339Z,2932
2017-05-17T04:56:21.827Z,2980
2017-05-17T04:57:02.192Z,3032
2017-05-17T04:57:42.733Z,3080
2017-05-17T04:58:23.133Z,3140
2017-05-17T04:59:03.552Z,3200
2017-05-17T04:59:43.990Z,3268
2017-05-17T05:00:24.369Z,3328
2017-05-17T05:01:04.790Z,3388
2017-05-17T05:01:45.264Z,3456
2017-05-17T05:02:25.681Z,3528
2017-05-17T05:03:06.091Z,3596
2017-05-17T05:03:46.496Z,3652
2017-05-17T05:04:26.945Z,3696
2017-05-17T05:05:07.393Z,3728
2017-05-17T05:05:47.779Z,3760
2017-05-17T05:06:28.219Z,3784
2017-05-17T05:07:08.668Z,3812
2017-05-17T05:07:49.078Z,3832
2017-05-17T05:08:29.545Z,3856
2017-05-17T05:09:10.946Z,3884
2017-05-17T05:09:51.429Z,3912
2017-05-17T05:10:33.300Z,3940
2017-05-17T05:11:14.677Z,3976
2017-05-17T05:11:55.868Z,4004
2017-05-17T05:12:37.804Z,4028
2017-05-17T05:13:18.915Z,4060
2017-05-17T05:13:59.401Z,4088
2017-05-17T05:14:40.391Z,4112
2017-05-17T05:15:21.003Z,4140
2017-05-17T05:16:01.611Z,4164
2017-05-17T05:16:42.126Z,4188
2017-05-17T05:17:22.499Z,4224
2017-05-17T05:18:02.994Z,4244
2017-05-17T05:18:43.411Z,4280
2017-05-17T05:19:23.841Z,4300
2017-05-17T05:20:04.294Z,4332
2017-05-17T05:20:44.751Z,4356
2017-05-17T05:21:26.154Z,4388
2017-05-17T05:22:06.593Z,4412
2017-05-17T05:22:47.020Z,4436
2017-05-17T05:23:30.310Z,4460
2017-05-17T05:24:11.295Z,4480
2017-05-17T05:24:52.489Z,4500
2017-05-17T05:25:33.457Z,4528
2017-05-17T05:26:13.928Z,4552
2017-05-17T05:26:54.332Z,4572
2017-05-17T05:27:34.725Z,4584
2017-05-17T05:28:15.133Z,4620
2017-05-17T05:28:55.581Z,4648
2017-05-17T05:29:35.971Z,4668
2017-05-17T05:30:16.404Z,4696
2017-05-17T05:30:56.973Z,4716
2017-05-17T05:31:37.389Z,4740
2017-05-17T05:32:17.819Z,4772
2017-05-17T05:32:58.257Z,4792
2017-05-17T05:33:38.784Z,4816
2017-05-17T05:34:19.738Z,4844
2017-05-17T05:35:00.172Z,4864
2017-05-17T05:35:40.644Z,4896
2017-05-17T05:36:21.257Z,4916
2017-05-17T05:37:03.228Z,4936
2017-05-17T05:37:43.669Z,4956
2017-05-17T05:38:24.983Z,4988
2017-05-17T05:39:05.930Z,5012
2017-05-17T05:39:46.279Z,5036
2017-05-17T05:40:27.415Z,5060
2017-05-17T05:41:07.783Z,5084
2017-05-17T05:41:48.188Z,5108
2017-05-17T05:42:29.331Z,5140
2017-05-17T05:43:09.864Z,5168
2017-05-17T05:43:50.307Z,5196
2017-05-17T05:44:30.743Z,5224
2017-05-17T05:45:11.215Z,5256
2017-05-17T05:45:51.637Z,5292
2017-05-17T05:46:39.772Z,5328
2017-05-17T05:47:21.680Z,5360
2017-05-17T05:48:02.136Z,5396
2017-05-17T05:48:42.556Z,5432
2017-05-17T05:49:23.628Z,5472
2017-05-17T05:50:04.143Z,5496
2017-05-17T05:50:48.515Z,5532
2017-05-17T05:51:29.770Z,5564
2017-05-17T05:52:13.080Z,5596
2017-05-17T05:52:54.036Z,5632
2017-05-17T05:53:34.433Z,5652
2017-05-17T05:54:17.525Z,5692
2017-05-17T05:54:57.923Z,5720
2017-05-17T05:55:40.673Z,5740
2017-05-17T05:56:21.314Z,5768
2017-05-17T05:57:03.188Z,5796
2017-05-17T05:57:44.488Z,5832
2017-05-17T05:58:25.082Z,5860
2017-05-17T05:59:05.537Z,5896
2017-05-17T05:59:46.645Z,5928
2017-05-17T06:00:28.847Z,5960
2017-05-17T06:01:10.889Z,5992
2017-05-17T06:01:53.119Z,6020
2017-05-17T06:02:33.609Z,6044
2017-05-17T06:03:17.204Z,6068
2017-05-17T06:03:57.614Z,6092
2017-05-17T06:04:38.649Z,6116
2017-05-17T06:05:19.707Z,6152
2017-05-17T06:06:00.738Z,6180
2017-05-17T06:06:41.207Z,6212
2017-05-17T06:07:22.312Z,6240
2017-05-17T06:08:05.282Z,6276
2017-05-17T06:08:46.255Z,6308
2017-05-17T06:09:27.286Z,6340
2017-05-17T06:10:07.737Z,6372
2017-05-17T06:10:48.163Z,6400
2017-05-17T06:11:28.584Z,6428
2017-05-17T06:12:08.903Z,6464
2017-05-17T06:12:51.873Z,6496
2017-05-17T06:13:32.245Z,6528
2017-05-17T06:14:13.511Z,6556
2017-05-17T06:14:53.920Z,6592
2017-05-17T06:15:36.273Z,6624
2017-05-17T06:16:17.514Z,6656
2017-05-17T06:16:58.850Z,6684
2017-05-17T06:17:41.275Z,6712
2017-05-17T06:18:25.228Z,6748
2017-05-17T06:19:08.145Z,6772
2017-05-17T06:19:48.601Z,6808
2017-05-17T06:20:31.790Z,6832
2017-05-17T06:21:15.822Z,6852
2017-05-17T06:21:56.273Z,6884
2017-05-17T06:22:39.257Z,6912
2017-05-17T06:23:19.651Z,6932
2017-05-17T06:24:00.151Z,6948
2017-05-17T06:24:42.252Z,6964
2017-05-17T06:25:24.432Z,6988
2017-05-17T06:26:06.670Z,7000
2017-05-17T06:26:47.718Z,7016
2017-05-17T06:27:28.676Z,7036
2017-05-17T06:28:09.095Z,7056
2017-05-17T06:28:50.885Z,7080
2017-05-17T06:29:31.291Z,7100
2017-05-17T06:30:14.144Z,7128
2017-05-17T06:30:55.435Z,7164
2017-05-17T06:31:36.856Z,7188
2017-05-17T06:32:17.258Z,7220
2017-05-17T06:32:57.688Z,7248
2017-05-17T06:33:38.167Z,7264
2017-05-17T06:34:18.587Z,7292
2017-05-17T06:34:59.020Z,7320
2017-05-17T06:35:39.430Z,7340
2017-05-17T06:36:19.875Z,7368
2017-05-17T06:37:00.292Z,7388
2017-05-17T06:37:40.699Z,7404
2017-05-17T06:38:21.063Z,7420
2017-05-17T06:39:01.485Z,7440
2017-05-17T06:39:42.844Z,7460
2017-05-17T06:40:23.259Z,7480
2017-05-17T06:41:04.286Z,7496
2017-05-17T06:41:45.183Z,7516
2017-05-17T06:42:25.621Z,7532
2017-05-17T06:43:06.034Z,7548
2017-05-17T06:43:46.467Z,7568
2017-05-17T06:44:27.874Z,7584
2017-05-17T06:45:09.367Z,7600
2017-05-17T06:45:49.864Z,7628
2017-05-17T06:46:30.318Z,7640
2017-05-17T06:47:11.494Z,7660
2017-05-17T06:47:51.895Z,7676
2017-05-17T06:48:32.346Z,7688
2017-05-17T06:49:12.788Z,7708
2017-05-17T06:49:53.209Z,7724
2017-05-17T06:50:33.631Z,7744
2017-05-17T06:51:14.120Z,7776
2017-05-17T06:51:54.503Z,7812
2017-05-17T06:52:34.917Z,7868
2017-05-17T06:53:15.288Z,7932
2017-05-17T06:53:55.740Z,7984
2017-05-17T06:54:36.234Z,8044
2017-05-17T06:55:17.532Z,8096
2017-05-17T06:55:57.934Z,8140
2017-05-17T06:56:38.366Z,8184
2017-05-17T06:57:18.795Z,8200
2017-05-17T06:57:59.242Z,8220
2017-05-17T06:58:39.684Z,8236
2017-05-17T06:59:20.088Z,8276
2017-05-17T07:00:00.513Z,8380
2017-05-17T07:00:40.953Z,8632
2017-05-17T07:01:21.371Z,9008
2017-05-17T07:02:01.791Z,9468
2017-05-17T07:02:42.227Z,9912
2017-05-17T07:03:22.649Z,10288
2017-05-17T07:04:03.048Z,10624
2017-05-17T07:04:43.495Z,11016
2017-05-17T07:05:23.890Z,11480
2017-05-17T07:06:04.317Z,12092
2017-05-17T07:06:44.731Z,12836
2017-05-17T07:07:25.155Z,13988
2017-05-17T07:08:05.596Z,25408
2017-05-17T07:08:46.008Z,38464
2017-05-17T07:09:26.415Z,50176
2017-05-17T07:10:06.823Z,54752
2017-05-17T07:10:47.232Z,58752
2017-05-17T07:11:28.207Z,58400
2017-05-17T07:12:10.212Z,57920
2017-05-17T07:12:53.169Z,60192
2017-05-17T07:13:36.377Z,56736
2017-05-17T07:14:16.811Z,59808
2017-05-17T07:14:57.251Z,64096
2017-05-17T07:15:38.203Z,65824
2017-05-17T07:16:18.601Z,60672
2017-05-17T07:16:59.704Z,64608
2017-05-17T07:17:40.100Z,67584
2017-05-17T07:18:22.428Z,69728
2017-05-17T07:19:03.510Z,68096
2017-05-17T07:19:46.185Z,68160
2017-05-17T07:20:26.594Z,66528
2017-05-17T07:21:07.691Z,68064
2017-05-17T07:21:49.063Z,68480
2017-05-17T07:22:33.707Z,67232
2017-05-17T07:23:15.048Z,63840
2017-05-17T07:23:55.441Z,65408
2017-05-17T07:24:35.875Z,66752
2017-05-17T07:25:16.286Z,69440
2017-05-17T07:25:56.736Z,66336
2017-05-17T07:26:37.137Z,67520
2017-05-17T07:27:17.570Z,70592
2017-05-17T07:27:57.989Z,69248
2017-05-17T07:28:38.441Z,70560
2017-05-17T07:29:18.846Z,71968
2017-05-17T07:29:59.263Z,72800
2017-05-17T07:30:39.737Z,70336
2017-05-17T07:31:20.989Z,68992
2017-05-17T07:32:01.435Z,69152
2017-05-17T07:32:41.834Z,69696
2017-05-17T07:33:23.175Z,69856
2017-05-17T07:34:03.634Z,69824
2017-05-17T07:34:44.056Z,70784
2017-05-17T07:35:24.552Z,72480
2017-05-17T07:36:05.058Z,70176
2017-05-17T07:36:45.462Z,69632
2017-05-17T07:37:25.893Z,71360
2017-05-17T07:38:06.364Z,70080
2017-05-17T07:38:47.076Z,69216
2017-05-17T07:39:27.568Z,66464
2017-05-17T07:42:05.738Z,72800
2017-05-17T07:42:46.144Z,71584
2017-05-17T07:43:26.589Z,72224
2017-05-17T07:44:07.072Z,74464
2017-05-17T07:44:47.441Z,75616
2017-05-17T07:46:45.301Z,74144
2017-05-17T07:47:25.733Z,75008
2017-05-17T07:48:06.172Z,76512
2017-05-17T07:50:22.195Z,78176
2017-05-17T07:51:02.709Z,77696
2017-05-17T07:51:43.081Z,76032
2017-05-17T07:52:23.533Z,74688
2017-05-17T07:53:03.932Z,76064
2017-05-17T07:53:44.357Z,80512
2017-05-17T07:54:24.845Z,79904
2017-05-17T07:55:05.307Z,78592
2017-05-17T07:55:45.810Z,74208
2017-05-17T07:56:26.207Z,75136
2017-05-17T07:57:06.638Z,75296
2017-05-17T07:57:47.099Z,75328
2017-05-17T07:58:28.397Z,75456
2017-05-17T07:59:08.842Z,76512
2017-05-17T07:59:49.249Z,77056
2017-05-17T08:00:29.664Z,73440
2017-05-17T08:01:10.119Z,72320
2017-05-17T08:01:50.559Z,68928
2017-05-17T08:02:30.963Z,71744
2017-05-17T08:03:11.401Z,73632
2017-05-17T08:05:41.214Z,79264
2017-05-17T08:06:21.644Z,80256
2017-05-17T08:07:02.084Z,79648
2017-05-17T08:07:42.626Z,79072
2017-05-17T08:08:24.218Z,79712
2017-05-17T08:09:04.691Z,81408
2017-05-17T08:09:45.107Z,85408
2017-05-17T08:10:25.515Z,84608
2017-05-17T08:11:06.638Z,79296
2017-05-17T08:11:47.039Z,82016
2017-05-17T08:12:27.477Z,89568
2017-05-17T08:13:07.914Z,90656
2017-05-17T08:13:48.340Z,83712
2017-05-17T08:14:28.756Z,81280
2017-05-17T08:15:09.239Z,79232
2017-05-17T08:15:49.627Z,83680
2017-05-17T08:16:30.056Z,85824
2017-05-17T08:17:10.534Z,89664
2017-05-17T08:17:50.967Z,87744
2017-05-17T08:18:31.397Z,84512
2017-05-17T08:19:11.815Z,80384
2017-05-17T08:19:52.266Z,81568
2017-05-17T08:20:32.664Z,85504
2017-05-17T08:21:13.132Z,85280
2017-05-17T08:21:53.556Z,77920
2017-05-17T08:22:33.977Z,74752
2017-05-17T08:23:14.404Z,73088
2017-05-17T08:23:54.850Z,74240
2017-05-17T08:24:35.259Z,77056
2017-05-17T08:25:16.609Z,80640
2017-05-17T08:25:57.069Z,79872
2017-05-17T08:26:37.511Z,77312
2017-05-17T08:27:17.890Z,79776
2017-05-17T08:27:58.338Z,82560
2017-05-17T08:28:39.329Z,83072
2017-05-17T08:29:20.629Z,82816
2017-05-17T08:30:01.115Z,82656
2017-05-17T08:30:41.536Z,84288
2017-05-17T08:31:21.997Z,84800
2017-05-17T08:32:02.410Z,87808
2017-05-17T08:32:42.851Z,88224
2017-05-17T08:33:23.315Z,89600
2017-05-17T08:34:03.749Z,90080
2017-05-17T08:34:44.160Z,92672
2017-05-17T08:35:24.619Z,91584
2017-05-17T08:36:05.097Z,88640
2017-05-17T08:36:45.495Z,90336
2017-05-17T08:37:25.950Z,93056
2017-05-17T08:38:06.356Z,94080
2017-05-17T08:38:46.813Z,93472
2017-05-17T08:39:27.223Z,92416
2017-05-17T08:41:40.920Z,94720
2017-05-17T08:42:21.351Z,96192
2017-05-17T08:43:01.799Z,93600
2017-05-17T08:43:42.221Z,92544
2017-05-17T08:44:22.659Z,93248
2017-05-17T08:46:20.479Z,96704
2017-05-17T08:47:00.927Z,95712
2017-05-17T08:47:41.404Z,93216
2017-05-17T08:48:21.829Z,91936
2017-05-17T08:49:02.279Z,95104
2017-05-17T08:49:42.685Z,95872
2017-05-17T08:50:23.119Z,95040
2017-05-17T08:51:03.574Z,94272
2017-05-17T08:51:43.983Z,93888
2017-05-17T08:52:24.440Z,97120
2017-05-17T08:53:04.825Z,99392
2017-05-17T08:53:45.270Z,98336
2017-05-17T08:55:43.279Z,87616
2017-05-17T08:56:23.726Z,91168
2017-05-17T08:57:04.170Z,98560
2017-05-17T08:57:44.605Z,100320
2017-05-17T08:58:25.056Z,99520
2017-05-17T08:59:05.478Z,97728
2017-05-17T08:59:45.916Z,102976
2017-05-17T09:00:26.334Z,104768
2017-05-17T09:01:06.782Z,103328
2017-05-17T09:01:47.217Z,99616
2017-05-17T09:02:27.679Z,99616
2017-05-17T09:03:08.151Z,101216
2017-05-17T09:03:48.533Z,102048
2017-05-17T09:04:28.984Z,98496
2017-05-17T09:05:09.405Z,96000
2017-05-17T09:05:49.814Z,94784
2017-05-17T09:06:30.288Z,97248
2017-05-17T09:07:10.736Z,99872
2017-05-17T09:07:51.130Z,101760
2017-05-17T09:08:31.585Z,100384
2017-05-17T09:09:12.027Z,100896
2017-05-17T09:09:52.474Z,102720
2017-05-17T09:10:32.879Z,102688
2017-05-17T09:11:13.307Z,102368
2017-05-17T09:11:53.731Z,100352
2017-05-17T09:12:34.149Z,104832
2017-05-17T09:13:14.571Z,107136
2017-05-17T09:13:55.027Z,105952
2017-05-17T09:14:35.471Z,105024
2017-05-17T09:15:15.895Z,104736
2017-05-17T09:15:56.284Z,103104
2017-05-17T09:16:36.792Z,102688
2017-05-17T09:17:17.197Z,103200
2017-05-17T09:17:58.183Z,105920
2017-05-17T09:18:38.635Z,109184
2017-05-17T09:19:19.026Z,110496
2017-05-17T09:19:59.466Z,111136
2017-05-17T09:20:39.912Z,104224
2017-05-17T09:21:20.328Z,100832
2017-05-17T09:22:00.775Z,102304
2017-05-17T09:22:41.264Z,105920
2017-05-17T09:23:21.634Z,104064
2017-05-17T09:24:02.117Z,99936
2017-05-17T09:24:42.556Z,100704
2017-05-17T09:25:23.009Z,100224
2017-05-17T09:26:03.450Z,99712
2017-05-17T09:26:43.920Z,101600
2017-05-17T09:27:24.305Z,104448
2017-05-17T09:28:04.768Z,102624
2017-05-17T09:30:02.766Z,97120
2017-05-17T09:30:43.200Z,98400
2017-05-17T09:31:23.642Z,101344
2017-05-17T09:32:04.110Z,102368
2017-05-17T09:32:44.499Z,97824
2017-05-17T09:33:24.957Z,92320
2017-05-17T09:34:05.362Z,99584
2017-05-17T09:36:33.852Z,104160
2017-05-17T09:37:14.195Z,99648
2017-05-17T09:37:54.605Z,98272